Thunder radar more information blitzortung!


Radar de pluja more information rain snow radar


Visita la nostra xarxa de llocs de meteo:

Template documentation
and downloads

And another site



No particular awareness of the weather is required.    There are no Weather-warnings

Pagina Historial Weather Underground text

Diari Resum Novembre 18, 2017 Unitats:  Imperial    Mètric   Tant
« Previous Dia
SegĂźent Dia »
Diari Setmana Mensual Anual Personalitzada
  Maxima: Minima: Media:
Temperatura: TemperatureC °F 4.0 °F 11.1 °F
Punt de rosada: DewpointC °F -3.8 °F 2.5 °F
Humitat: Humidity % 46 % 55 %
Wind Speed: WindSpeedKMH mph 0.0 mph 3 mph
RĂ fegues de vent: WindSpeedGustKMH mph - -
Vent:- - South
Pression baro: PressurehPa in 1018.8 in -
Precipitacions: 0.0 in    
Historical Graphs
 
 
Dades de taula per Novembre 18, 2017
Temps Temperatura Punt de rosada Pression baro Vent Wind Speed RĂ fegues de vent Humitat Rainfall Rate (Hourly)
TemperatureC °F DewpointC °F PressurehPa in Calm     Humidity % HourlyPrecipMM in
00:05 8.9 °F -2.1 °F 1019.9 in West 2.3 mph   46 % 0.0 in
00:10 8.7 °F -2.3 °F 1019.9 in West 1.9 mph   46 % 0.0 in
00:15 8.5 °F -2.5 °F 1019.9 in Calm     46 % 0.0 in
00:25 5.2 °F -3.1 °F 1018.8 in Calm   3.2 mph 55 % 0.0 in
00:35 5.1 °F -3.2 °F 1018.8 in WSW 1.6 mph 3.2 mph 55 % 0.0 in
00:45 4.5 °F -3.8 °F 1018.8 in WSW 3.2 mph 3.2 mph 55 % 0.0 in
00:55 4.5 °F -3.6 °F 1018.8 in Calm   3.2 mph 56 % 0.0 in
01:05 4.5 °F -3.3 °F 1018.8 in Calm   3.2 mph 57 % 0.0 in
01:15 4.5 °F -3.3 °F 1019.9 in Calm   3.2 mph 57 % 0.0 in
01:25 4.4 °F -3.4 °F 1019.9 in SW 3.2 mph 4.8 mph 57 % 0.0 in
01:35 4.0 °F -3.6 °F 1019.9 in Calm   4.8 mph 58 % 0.0 in
01:45 4.2 °F -3.3 °F 1019.9 in SW 3.2 mph 3.2 mph 58 % 0.0 in
01:55 4.2 °F -3.1 °F 1019.9 in Calm   3.2 mph 59 % 0.0 in
02:05 4.4 °F -2.9 °F 1019.9 in Calm   3.2 mph 59 % 0.0 in
02:15 4.8 °F -2.6 °F 1019.9 in West 1.6 mph 3.2 mph 59 % 0.0 in
02:25 4.9 °F -2.4 °F 1019.9 in NW 1.6 mph 1.6 mph 59 % 0.0 in
02:35 5.3 °F -1.8 °F 1019.9 in NE 3.2 mph 3.2 mph 60 % 0.0 in
03:05 6.9 °F -0.8 °F 1020.9 in Calm   1.6 mph 58 % 0.0 in
03:15 7.5 °F -0.2 °F 1019.9 in Calm   1.6 mph 58 % 0.0 in
03:25 7.6 °F -0.4 °F 1020.9 in North 1.6 mph 4.8 mph 57 % 0.0 in
03:35 8.1 °F -0.2 °F 1020.9 in North 1.6 mph 3.2 mph 56 % 0.0 in
03:45 7.9 °F -0.3 °F 1020.9 in Calm   3.2 mph 56 % 0.0 in
03:55 8.2 °F -0.1 °F 1020.9 in WSW 3.2 mph 4.8 mph 56 % 0.0 in
04:05 8.2 °F -0.1 °F 1020.9 in SW 1.6 mph 4.8 mph 56 % 0.0 in
04:15 9.1 °F 1.0 °F 1020.9 in SW 1.6 mph 4.8 mph 57 % 0.0 in
04:25 9.8 °F 1.4 °F 1020.9 in SW 1.6 mph 4.8 mph 56 % 0.0 in
04:35 10.1 °F 1.4 °F 1020.9 in SW 4.8 mph 4.8 mph 55 % 0.0 in
04:55 11.5 °F 2.5 °F 1020.9 in SSE 1.6 mph 3.2 mph 54 % 0.0 in
05:05 11.8 °F 2.8 °F 1020.9 in East 1.6 mph 3.2 mph 54 % 0.0 in
11:08 11.8 °F 2.5 °F 1020.9 in North 5.6 mph 5.6 mph 53 % 0.0 in
11:09 11.8 °F 2.5 °F 1020.9 in North 5.6 mph 5.6 mph 53 % 0.0 in
11:14 11.8 °F 2.5 °F 1020.9 in North 5.6 mph 5.6 mph 53 % 0.0 in
11:19 11.9 °F 2.6 °F 1021.9 in NNE 9.3 mph 9.3 mph 53 % 0.0 in
11:24 11.9 °F 2.6 °F 1021.9 in NNW 7.4 mph 7.4 mph 53 % 0.0 in
11:29 11.9 °F 2.6 °F 1021.9 in NW 9.3 mph 9.3 mph 53 % 0.0 in
11:34 12.4 °F 2.8 °F 1021.9 in North 2.3 mph   52 % 0.0 in
11:39 12.6 °F 3.0 °F 1021.9 in NNE 3.9 mph 3.9 mph 52 % 0.0 in
11:44 12.8 °F 3.2 °F 1021.9 in North 5.6 mph 5.6 mph 52 % 0.0 in
11:49 12.8 °F 3.2 °F 1021.9 in ESE 5.8 mph 5.8 mph 52 % 0.0 in
11:54 13.0 °F 3.4 °F 1021.9 in East 5.6 mph 5.6 mph 52 % 0.0 in
11:59 13.2 °F 3.6 °F 1021.9 in NNE 5.6 mph 5.6 mph 52 % 0.0 in
12:04 13.5 °F 3.8 °F 1021.9 in NNW 3.7 mph 3.7 mph 52 % 0.0 in
12:09 13.7 °F 4.0 °F 1021.9 in WNW 5.6 mph 5.6 mph 52 % 0.0 in
12:14 13.8 °F 4.1 °F 1021.9 in NW 4.7 mph 4.7 mph 52 % 0.0 in
12:19 14.1 °F 4.4 °F 1021.9 in NNE 2.6 mph 2.6 mph 52 % 0.0 in
12:24 14.4 °F 4.7 °F 1021.9 in NNE 4.2 mph 4.2 mph 52 % 0.0 in
12:29 14.5 °F 4.8 °F 1021.9 in NNW 5.6 mph 5.6 mph 52 % 0.0 in
12:34 14.7 °F 4.9 °F 1020.9 in NE 3.7 mph 3.7 mph 52 % 0.0 in
12:39 14.7 °F 4.9 °F 1020.9 in ENE 3.7 mph 3.7 mph 52 % 0.0 in
12:44 15.0 °F 5.2 °F 1020.9 in ENE 5.6 mph 5.6 mph 52 % 0.0 in
12:49 15.1 °F 5.3 °F 1021.9 in NE 5.8 mph 5.8 mph 52 % 0.0 in
12:51 15.1 °F 5.3 °F 1021.9 in NNE 5.6 mph 5.6 mph 52 % 0.0 in
12:56 15.5 °F 5.4 °F 1021.9 in WSW 3.2 mph   51 % 0.0 in
13:01 15.8 °F 5.9 °F 1021.9 in NNE 3.7 mph 3.7 mph 52 % 0.0 in
13:06 15.7 °F 5.9 °F 1021.9 in NE 3.7 mph 3.7 mph 52 % 0.0 in
13:11 15.8 °F 5.9 °F 1021.9 in ESE 3.7 mph 3.7 mph 52 % 0.0 in
13:16 16.0 °F 6.2 °F 1021.9 in SW 5.0 mph 5.0 mph 52 % 0.0 in
13:21 16.4 °F 6.5 °F 1021.9 in SW 3.7 mph   52 % 0.0 in
13:26 16.4 °F 6.8 °F 1021.9 in NW 1.9 mph 2.3 mph 53 % 0.0 in
13:31 16.2 °F 6.6 °F 1021.9 in North 1.9 mph 1.9 mph 53 % 0.0 in
13:36 16.3 °F 6.7 °F 1021.9 in NNE 1.9 mph   53 % 0.0 in
13:41 16.3 °F 6.7 °F 1021.9 in NNW 3.7 mph 3.7 mph 53 % 0.0 in
13:46 16.5 °F 7.2 °F 1021.9 in NNE 3.2 mph 3.2 mph 54 % 0.0 in
13:51 16.2 °F 6.9 °F 1020.9 in NE 7.4 mph 7.4 mph 54 % 0.0 in
13:56 16.1 °F 7.1 °F 1020.9 in SE 3.7 mph 3.7 mph 55 % 0.0 in
14:01 16.1 °F 7.1 °F 1020.9 in ESE 5.6 mph 5.6 mph 55 % 0.0 in
14:11 16.0 °F 7.2 °F 1021.9 in ESE 5.8 mph 5.8 mph 56 % 0.0 in
14:16 16.0 °F 7.2 °F 1021.9 in WSW 3.2 mph   56 % 0.0 in
14:21 16.2 °F 7.4 °F 1020.9 in ESE 3.7 mph 3.7 mph 56 % 0.0 in
14:26 16.3 °F 7.5 °F 1020.9 in ESE 3.9 mph 3.9 mph 56 % 0.0 in
14:31 16.4 °F 7.6 °F 1020.9 in East 3.9 mph 3.9 mph 56 % 0.0 in
14:36 16.3 °F 7.5 °F 1020.9 in NE 5.6 mph 5.6 mph 56 % 0.0 in
14:41 16.4 °F 7.6 °F 1020.9 in East 5.8 mph 5.8 mph 56 % 0.0 in
14:46 16.3 °F 7.5 °F 1020.9 in NNE 5.6 mph 5.6 mph 56 % 0.0 in
14:51 16.4 °F 7.6 °F 1020.9 in SSE 4.7 mph 4.7 mph 56 % 0.0 in
14:56 16.5 °F 7.7 °F 1020.9 in ESE 5.6 mph 5.6 mph 56 % 0.0 in
15:01 16.5 °F 7.7 °F 1020.9 in NE 3.9 mph 3.9 mph 56 % 0.0 in
15:06 16.4 °F 7.6 °F 1020.9 in ESE 4.2 mph 4.2 mph 56 % 0.0 in
15:11 16.4 °F 7.3 °F 1020.9 in ENE 3.7 mph 3.7 mph 55 % 0.0 in
15:16 16.5 °F 7.7 °F 1020.9 in NNE 4.2 mph 4.2 mph 56 % 0.0 in
15:21 16.5 °F 7.4 °F 1020.9 in NE 3.7 mph 3.7 mph 55 % 0.0 in
15:26 16.6 °F 7.5 °F 1020.9 in Calm     55 % 0.0 in
15:31 16.6 °F 7.5 °F 1020.9 in ENE 3.9 mph 3.9 mph 55 % 0.0 in
15:36 16.5 °F 7.4 °F 1020.9 in East 3.7 mph 3.7 mph 55 % 0.0 in
15:41 16.5 °F 7.4 °F 1020.9 in SE 5.6 mph 5.6 mph 55 % 0.0 in
15:46 16.5 °F 7.4 °F 1020.9 in East 3.7 mph 3.7 mph 55 % 0.0 in
15:51 16.6 °F 7.5 °F 1020.9 in ENE 3.9 mph 3.9 mph 55 % 0.0 in
15:56 16.6 °F 7.5 °F 1020.9 in ESE 3.7 mph 3.7 mph 55 % 0.0 in
16:01 16.5 °F 7.4 °F 1020.9 in ESE 5.6 mph 5.6 mph 55 % 0.0 in
16:06 16.5 °F 7.4 °F 1020.9 in ESE 3.2 mph 3.2 mph 55 % 0.0 in
16:11 16.5 °F 7.4 °F 1020.9 in ESE 4.2 mph 4.2 mph 55 % 0.0 in
16:16 16.5 °F 7.4 °F 1020.9 in ESE 4.2 mph 4.2 mph 55 % 0.0 in
16:21 16.4 °F 7.3 °F 1020.9 in ESE 3.7 mph 3.7 mph 55 % 0.0 in
16:26 16.4 °F 7.3 °F 1020.9 in East 3.7 mph 3.7 mph 55 % 0.0 in
16:31 16.4 °F 7.3 °F 1020.9 in SE 3.9 mph 3.9 mph 55 % 0.0 in
16:36 16.5 °F 7.4 °F 1020.9 in South 1.9 mph 1.9 mph 55 % 0.0 in
16:41 16.6 °F 7.5 °F 1020.9 in SSE 4.2 mph   55 % 0.0 in
16:46 16.5 °F 7.4 °F 1020.9 in South 1.9 mph 1.9 mph 55 % 0.0 in
16:51 16.5 °F 7.4 °F 1020.9 in South 1.9 mph   55 % 0.0 in
16:56 16.4 °F 7.6 °F 1020.9 in SSE 1.9 mph   56 % 0.0 in
17:01 16.3 °F 7.5 °F 1020.9 in SE 3.7 mph 3.7 mph 56 % 0.0 in
17:06 16.2 °F 7.2 °F 1020.9 in East 1.9 mph 1.9 mph 55 % 0.0 in
17:11 16.0 °F 7.2 °F 1020.9 in East 1.9 mph 1.9 mph 56 % 0.0 in
17:16 15.9 °F 7.1 °F 1020.9 in Calm     56 % 0.0 in
17:21 15.7 °F 6.9 °F 1020.9 in Calm     56 % 0.0 in
17:26 15.5 °F 6.8 °F 1020.9 in Calm     56 % 0.0 in
17:31 15.3 °F 6.8 °F 1020.9 in WSW 2.3 mph 2.3 mph 57 % 0.0 in
17:36 15.0 °F 6.6 °F 1020.9 in WSW 2.3 mph 2.3 mph 57 % 0.0 in
17:41 14.8 °F 6.3 °F 1020.9 in WSW 3.2 mph 3.2 mph 57 % 0.0 in
17:46 14.4 °F 6.2 °F 1020.9 in WSW 3.7 mph 3.7 mph 58 % 0.0 in
17:51 14.3 °F 6.2 °F 1021.9 in WSW 1.9 mph 1.9 mph 58 % 0.0 in
17:56 14.0 °F 5.6 °F 1021.9 in WNW 2.3 mph 2.3 mph 57 % 0.0 in
18:01 13.9 °F 5.3 °F 1021.9 in WSW 5.6 mph 5.6 mph 56 % 0.0 in
18:03 13.9 °F 5.3 °F 1021.9 in WNW 1.9 mph   56 % 0.0 in
18:08 13.7 °F 5.3 °F 1021.9 in East 5.0 mph 5.0 mph 57 % 0.0 in
18:13 13.6 °F 5.5 °F 1021.9 in WSW 4.7 mph 4.7 mph 58 % 0.0 in
18:18 13.5 °F 5.2 °F 1021.9 in West 3.2 mph 3.2 mph 57 % 0.0 in
18:23 13.3 °F 4.9 °F 1021.9 in WSW 3.7 mph 3.7 mph 57 % 0.0 in
18:28 13.1 °F 4.8 °F 1021.9 in West 3.7 mph 3.7 mph 57 % 0.0 in
18:33 12.9 °F 4.3 °F 1021.9 in West 3.7 mph 3.7 mph 56 % 0.0 in
18:38 12.8 °F 4.0 °F 1021.9 in West 5.6 mph 5.6 mph 55 % 0.0 in
18:43 12.7 °F 3.6 °F 1021.9 in SW 3.7 mph 3.7 mph 54 % 0.0 in
18:48 12.4 °F 3.3 °F 1021.9 in SW 3.2 mph 3.2 mph 54 % 0.0 in
18:53 12.2 °F 2.9 °F 1021.9 in SW 3.7 mph 3.7 mph 53 % 0.0 in
18:58 12.0 °F 2.7 °F 1021.9 in SW 2.6 mph 2.6 mph 53 % 0.0 in
19:00 7.3 °F -0.7 °F 1020.9 in NW 1.6 mph 3.2 mph 57 % 0.0 in
19:03 11.8 °F 2.5 °F 1021.9 in SW 5.6 mph 5.6 mph 53 % 0.0 in
19:08 11.6 °F 2.3 °F 1021.9 in SW 5.6 mph 5.6 mph 53 % 0.0 in
19:10 7.2 °F -0.5 °F 1020.9 in North 1.6 mph 3.2 mph 58 % 0.0 in
19:13 11.5 °F 2.2 °F 1021.9 in SW 3.7 mph 3.7 mph 53 % 0.0 in
19:18 11.3 °F 2.1 °F 1021.9 in WSW 5.6 mph 5.6 mph 53 % 0.0 in
19:20 6.8 °F -0.9 °F 1020.9 in Calm   1.6 mph 58 % 0.0 in
19:23 11.2 °F 1.9 °F 1021.9 in SW 3.9 mph 3.9 mph 53 % 0.0 in
19:28 11.1 °F 1.9 °F 1021.9 in WSW 3.7 mph 3.7 mph 53 % 0.0 in
19:33 11.1 °F 1.9 °F 1021.9 in SW 3.9 mph 3.9 mph 53 % 0.0 in
19:38 11.0 °F 1.8 °F 1021.9 in WSW 3.7 mph 3.7 mph 53 % 0.0 in
19:40 6.3 °F -1.1 °F 1019.9 in Calm   3.2 mph 59 % 0.0 in
19:43 11.0 °F 1.8 °F 1021.9 in WSW 3.7 mph   53 % 0.0 in
19:48 10.9 °F 1.7 °F 1021.9 in Calm     53 % 0.0 in
19:50 6.2 °F -1.0 °F 1019.9 in WSW 1.6 mph 1.6 mph 60 % 0.0 in
19:53 10.9 °F 1.7 °F 1021.9 in East 3.7 mph 3.7 mph 53 % 0.0 in
19:58 10.8 °F 1.6 °F 1021.9 in Calm     53 % 0.0 in
20:03 10.6 °F 1.4 °F 1021.9 in WSW 3.7 mph 3.7 mph 53 % 0.0 in
20:08 10.5 °F 1.3 °F 1021.9 in SW 2.3 mph 2.3 mph 53 % 0.0 in
20:10 5.8 °F -1.2 °F 1018.8 in Calm   1.6 mph 61 % 0.0 in
20:13 10.5 °F 1.3 °F 1021.9 in SW 3.7 mph 3.7 mph 53 % 0.0 in
20:18 10.4 °F 1.2 °F 1021.9 in Calm     53 % 0.0 in
20:20 5.8 °F -1.2 °F 1018.8 in WSW 1.6 mph 3.2 mph 61 % 0.0 in
20:23 10.2 °F 1.1 °F 1021.9 in Calm     53 % 0.0 in
20:28 10.1 °F 0.9 °F 1021.9 in WSW 4.2 mph 4.2 mph 53 % 0.0 in
20:30 6.0 °F -0.9 °F 1019.9 in West 1.6 mph 3.2 mph 61 % 0.0 in
20:38 10.0 °F 0.8 °F 1021.9 in SW 3.5 mph   53 % 0.0 in
20:43 10.0 °F 0.8 °F 1021.9 in West 1.9 mph 1.9 mph 53 % 0.0 in
20:48 9.9 °F 0.8 °F 1021.9 in Calm     53 % 0.0 in
20:50 5.7 °F -1.0 °F 1019.9 in West 3.2 mph 3.2 mph 62 % 0.0 in
20:53 9.8 °F 0.7 °F 1021.9 in SW 1.4 mph   53 % 0.0 in
20:58 9.8 °F 0.7 °F 1021.9 in SW 2.3 mph 2.3 mph 53 % 0.0 in
21:00 5.7 °F -1.0 °F 1019.9 in WSW 3.2 mph 4.8 mph 62 % 0.0 in
21:03 9.5 °F 0.4 °F 1021.9 in SW 3.7 mph 3.7 mph 53 % 0.0 in
21:08 9.4 °F 0.3 °F 1021.9 in SW 3.7 mph 3.7 mph 53 % 0.0 in
21:10 5.6 °F -1.1 °F 1020.9 in WSW 3.2 mph 4.8 mph 62 % 0.0 in
21:13 9.4 °F 0.3 °F 1021.9 in SW 2.3 mph 2.3 mph 53 % 0.0 in
21:18 9.4 °F 0.3 °F 1021.9 in WSW 2.6 mph 2.6 mph 53 % 0.0 in
21:20 5.8 °F -0.9 °F 1020.9 in WSW 1.6 mph 4.8 mph 62 % 0.0 in
21:23 9.4 °F 0.3 °F 1021.9 in West 3.9 mph 3.9 mph 53 % 0.0 in
21:28 9.5 °F 0.4 °F 1021.9 in West 2.3 mph 2.3 mph 53 % 0.0 in
21:30 6.0 °F -0.7 °F 1020.9 in Calm   3.2 mph 62 % 0.0 in
21:33 9.4 °F 0.3 °F 1021.9 in Calm     53 % 0.0 in
21:38 9.4 °F 0.3 °F 1021.9 in West 3.7 mph 3.7 mph 53 % 0.0 in
21:40 5.9 °F -0.6 °F 1020.9 in WSW 1.6 mph 3.2 mph 63 % 0.0 in
21:43 9.5 °F 0.4 °F 1021.9 in West 1.9 mph 1.9 mph 53 % 0.0 in
21:48 9.5 °F 0.4 °F 1022.9 in Calm     53 % 0.0 in
21:50 5.4 °F -1.1 °F 1020.9 in WSW 3.2 mph 3.2 mph 63 % 0.0 in
21:53 9.5 °F 0.4 °F 1022.9 in West 1.9 mph 1.9 mph 53 % 0.0 in
21:58 9.4 °F 0.3 °F 1022.9 in WSW 3.7 mph 3.7 mph 53 % 0.0 in
22:00 5.6 °F -0.9 °F 1020.9 in WSW 1.6 mph 3.2 mph 63 % 0.0 in
22:03 9.1 °F 0.0 °F 1021.9 in SW 3.9 mph 3.9 mph 53 % 0.0 in
22:08 8.9 °F -0.2 °F 1021.9 in WSW 3.7 mph 3.7 mph 53 % 0.0 in
22:10 5.6 °F -0.9 °F 1020.9 in West 1.6 mph 3.2 mph 63 % 0.0 in
22:13 8.8 °F -0.3 °F 1021.9 in WSW 3.7 mph 3.7 mph 53 % 0.0 in
22:18 8.8 °F 0.0 °F 1021.9 in WNW 3.2 mph 3.2 mph 54 % 0.0 in
22:20 5.5 °F -1.0 °F 1020.9 in WSW 3.2 mph 3.2 mph 63 % 0.0 in
22:24 8.8 °F 0.0 °F 1021.9 in SW 3.9 mph 3.9 mph 54 % 0.0 in
22:29 8.7 °F -0.1 °F 1021.9 in SW 2.3 mph 2.6 mph 54 % 0.0 in
22:30 5.5 °F -0.8 °F 1020.9 in Calm   3.2 mph 64 % 0.0 in
22:34 8.5 °F -0.3 °F 1021.9 in SW 5.6 mph 5.6 mph 54 % 0.0 in
22:39 8.5 °F -0.3 °F 1021.9 in WSW 5.6 mph 5.6 mph 54 % 0.0 in
22:40 5.5 °F -0.8 °F 1019.9 in WSW 1.6 mph 3.2 mph 64 % 0.0 in
22:44 8.4 °F -0.4 °F 1021.9 in SW 2.3 mph 2.3 mph 54 % 0.0 in
22:49 8.4 °F -0.4 °F 1020.9 in SW 3.7 mph 3.7 mph 54 % 0.0 in
22:50 5.6 °F -0.7 °F 1019.9 in Calm   3.2 mph 64 % 0.0 in
22:54 8.4 °F -0.4 °F 1020.9 in WSW 1.9 mph 1.9 mph 54 % 0.0 in
22:59 8.3 °F -0.5 °F 1020.9 in Calm     54 % 0.0 in
23:00 5.5 °F -0.6 °F 1019.9 in Calm   3.2 mph 65 % 0.0 in
23:04 8.4 °F -0.4 °F 1021.9 in NW 3.7 mph 3.7 mph 54 % 0.0 in
23:09 8.4 °F -0.4 °F 1021.9 in NNW 2.3 mph 2.3 mph 54 % 0.0 in
23:10 5.2 °F -1.1 °F 1019.9 in NNW 1.6 mph 1.6 mph 64 % 0.0 in
23:14 8.3 °F -0.5 °F 1021.9 in NNW 1.9 mph 1.9 mph 54 % 0.0 in
23:19 7.8 °F -0.9 °F 1021.9 in SW 3.7 mph 3.7 mph 54 % 0.0 in
23:20 5.1 °F -0.9 °F 1019.9 in Calm   3.2 mph 65 % 0.0 in
23:24 7.4 °F -1.3 °F 1021.9 in WSW 3.7 mph 3.7 mph 54 % 0.0 in
23:29 7.3 °F -1.2 °F 1021.9 in WSW 3.7 mph 3.7 mph 55 % 0.0 in
23:30 5.1 °F -0.9 °F 1019.9 in NNW 1.6 mph 3.2 mph 65 % 0.0 in
23:34 7.5 °F -0.9 °F 1021.9 in WSW 3.7 mph 3.7 mph 55 % 0.0 in
23:39 7.5 °F -0.9 °F 1021.9 in Calm     55 % 0.0 in
23:44 7.4 °F -1.1 °F 1021.9 in Calm     55 % 0.0 in
23:49 7.3 °F -0.9 °F 1021.9 in Calm     56 % 0.0 in
23:50 5.0 °F -1.1 °F 1019.9 in NNW 1.6 mph 4.8 mph 65 % 0.0 in
23:54 7.2 °F -1.0 °F 1021.9 in SSW 3.2 mph   56 % 0.0 in
23:59 7.2 °F -1.0 °F 1021.9 in SW 3.9 mph 3.9 mph 56 % 0.0 in
Meteo Sesrovires
Elogis d' Weather Underground - 1.5 mb

Guio original per  Jim McMurry - jmcmurry@mwt.net Adaptat per a la plantilla per  Wim van der Kuil - Leuven-Template.eu

Trobareu la nostra informacio del temps tambe a:

Weather Underground

AWEKAS